Honeyford, North Dakota
Current Conditions -  °F | °C
As of 1:58 AM on Saturday 20 Dec 2014 (Local Time) from KRDR Reporting Station
Overcast Overcast  
Wind Chill: 28°   Ceiling: 800
Heat Index: 28°   Visibility: 9mi
Dew Point: 28°   Wind: 2mph
Humidity: 100%   Direction: 260°W
Pressure: 30"   Gusts: NA
Location:  48.1078°N, 97.4492°W
Report Text: KRDR 200758Z 26002KT 9SM R35/5500FT OVC008 M02/M02 A3000 RMK AO2A SLP177 T10201020
Loading
Personal Weather Stations






























Interactive Weather Map New forecast layout! Learn more

10-Day Weather Forecast

Advertisements
Track Severe Weather on mobile